Rio De Janeiro, Brazil

7:35 AM BRT on September 05, 2015 (GMT -0300)
APA Sao Jose | | Change Station
CLOSE
Current Station
Personal Weather Station
Location: Maricá, RIO DE JANEIRO
Elevation: 187 ft
Nearby Weather Stations

Elev 187 ft 22.93 °S, 43.19 °W | Updated 25 seconds ago

Rain
Rain
64.8 °F
Feels Like 64.8 °F
N
1.6
Wind Variable Wind from North
Gusts 3.8 mph

Today
High -- | Low -- °F
--% Chance of Precip.
Yesterday
High -- | Low -- °F
Precip. -- in
5:59 AM 5:43 PM
Waning Gibbous, 50% visible
Pressure 30.12 in
Visibility 6.2 miles
Clouds Few 1000 ft
Mostly Cloudy 1800 ft
Overcast 7000 ft
Dew Point 63 °F
Humidity 93%
Rainfall 0.32 in
Snow Depth Not available.
UV 0 out of 12
Pollen Not available.
Air Quality Not available.
Flu Activity Not available.
SPECI SBRJ 051030Z 12012KT 9999 FEW010 BKN018 OVC070 19/18 Q1020
Pressure 30.12 in
Visibility 6.2 miles
Clouds Few 1000 ft
Mostly Cloudy 1800 ft
Overcast 7000 ft
Dew Point 63 °F
Humidity 93%
Rainfall 0.32 in
Snow Depth Not available.
UV 0 out of 12
Pollen Not available.
Air Quality Not available.
Flu Activity Not available.
SPECI SBRJ 051030Z 12012KT 9999 FEW010 BKN018 OVC070 19/18 Q1020

10-Day Weather Forecast

×

Almanac

Astronomy

Sep. 05, 2015 Rise Set
Actual Time
Civil Twilight
Nautical Twilight
Astronomical Twilight
Moon
Length of Visible Light
Length of Day
Tomorrow will be .
, % of the Moon is Illuminated

Today's Extremes

Country Highs Country Lows

Community

WunderPhotos

Upload Photos

1,852,440 photos uploaded!

WunderBlogs® & News

Nearby

Air Quality

  Air Quality AQ Index Pollutant
Not available.

Snow Depth

Station Depth Elevation

Earthquake Activity

City Distance Mag. Time & Date
Minimum magnitude displayed is 2.5.

Coastal Water Temperatures

Place Temperature

Stations

Nearby Weather Stations

Station Location Temp. Windchill Dew Point Humidity Wind Precip. Elev Updated Type